Allegany, New York
Current Conditions -  °F | °C
As of 11:15 AM on Monday 24 Nov 2014 (Local Time) from KOLE Reporting Station
Overcast Overcast  
Wind Chill: 57°   Ceiling: 3000
Heat Index: 57°   Visibility: 10mi
Dew Point: 54°   Wind: 16mph
Humidity: 88%   Direction: 200°SSW
Pressure: 29.37"   Gusts: 26mph
Location:  42.09°N, 78.49°W
Report Text: KOLE 241615Z AUTO 20014G23KT 10SM BKN030 OVC037 14/12 A2937 RMK AO2 LTG DSNT S
Loading
Personal Weather Stations






























Interactive Weather Map New forecast layout! Learn more

10-Day Weather Forecast

Advertisements
Track Severe Weather on mobile